Terminal Aerodrome Forecast
Issued by NWS Twin Cities, MN

Home | Current Version | Previous Version | Text Only | Print | Product List | Glossary On
Versions: 1 2 3 4 5 6 7 8 9 10 11 12 13 14 15 16 17 18 19
000
FTUS43 KMPX 310520
TAFEAU
TAF
KEAU 310520Z 3106/0106 13003KT P6SM BKN250
     FM310900 15005KT P6SM -SHRA VCTS OVC080CB
     FM311100 16006KT P6SM VCSH BKN080 OVC200
     FM311700 20010KT P6SM VCSH BKN060 PROB30 3117/3121 -TSRA
      BKN050CB=

USA.gov is the U.S. government's official web portal to all federal, state and local government web resources and services.